createdAt,value
2022-12-02T00:02:16.372Z,31.20
2022-12-02T00:04:43.154Z,31.23
2022-12-02T00:07:19.158Z,31.07
2022-12-02T00:09:46.475Z,30.93
2022-12-02T00:12:33.492Z,31.23
2022-12-02T00:15:03.504Z,32.13
2022-12-02T00:17:30.210Z,29.67
2022-12-02T00:19:58.799Z,30.00
2022-12-02T00:22:25.537Z,32.20
2022-12-02T00:24:52.621Z,31.50
2022-12-02T00:27:19.639Z,31.83
2022-12-02T00:29:46.382Z,30.53
2022-12-02T00:32:13.134Z,31.37
2022-12-02T00:34:39.874Z,33.00
2022-12-02T00:37:06.642Z,30.73
2022-12-02T00:39:33.363Z,30.63
2022-12-02T00:42:00.090Z,32.33
2022-12-02T00:44:45.251Z,31.80
2022-12-02T00:47:11.983Z,31.30
2022-12-02T00:49:38.687Z,33.30
2022-12-02T00:52:05.446Z,32.30
2022-12-02T00:54:32.162Z,30.53
2022-12-02T00:56:58.877Z,30.57
2022-12-02T00:59:25.582Z,30.50
2022-12-02T01:01:52.810Z,32.37
2022-12-02T01:04:19.548Z,32.10
2022-12-02T01:06:46.527Z,32.10
2022-12-02T01:09:13.353Z,30.73
2022-12-02T01:11:40.142Z,31.87
2022-12-02T01:14:06.865Z,30.17
2022-12-02T01:16:33.583Z,29.20
2022-12-02T01:19:00.530Z,30.90
2022-12-02T01:21:27.307Z,30.20
2022-12-02T01:23:54.263Z,30.63
2022-12-02T01:26:20.997Z,31.70
2022-12-02T01:28:47.895Z,30.43
2022-12-02T01:31:15.319Z,30.43
2022-12-02T01:33:42.711Z,29.73
2022-12-02T01:36:09.742Z,31.27
2022-12-02T01:38:36.653Z,30.63
2022-12-02T01:41:04.810Z,30.83
2022-12-02T01:43:31.914Z,30.07
2022-12-02T01:45:59.152Z,30.13
2022-12-02T01:48:27.088Z,31.60
2022-12-02T01:50:53.829Z,28.97
2022-12-02T01:53:21.354Z,29.77
2022-12-02T01:55:48.393Z,30.63
2022-12-02T01:58:16.270Z,29.47
2022-12-02T02:00:43.031Z,30.17
2022-12-02T02:03:09.854Z,28.57
2022-12-02T02:05:37.196Z,29.57
2022-12-02T02:08:06.712Z,29.97
2022-12-02T02:10:35.901Z,28.60
2022-12-02T02:13:03.214Z,30.70
2022-12-02T02:15:31.283Z,29.60
2022-12-02T02:18:04.635Z,28.90
2022-12-02T02:20:33.101Z,29.53
2022-12-02T02:23:06.104Z,27.20
2022-12-02T02:25:43.802Z,28.27
2022-12-02T02:28:13.022Z,27.73
2022-12-02T02:30:40.679Z,27.10
2022-12-02T02:33:09.834Z,25.97
2022-12-02T02:35:38.887Z,26.47
2022-12-02T02:38:08.031Z,24.13
2022-12-02T02:40:35.790Z,24.20
2022-12-02T02:43:04.631Z,25.83
2022-12-02T02:45:35.212Z,23.70
2022-12-02T02:48:06.726Z,22.43
2022-12-02T02:50:36.122Z,21.67
2022-12-02T02:53:04.192Z,24.27
2022-12-02T02:55:32.178Z,23.73
2022-12-02T02:58:15.724Z,23.27
2022-12-02T03:00:53.103Z,22.40
2022-12-02T03:03:23.749Z,21.80
2022-12-02T03:05:53.014Z,20.97
2022-12-02T03:08:21.540Z,22.30
2022-12-02T03:10:48.955Z,21.07
2022-12-02T03:13:16.034Z,22.30
2022-12-02T03:15:43.191Z,20.73
2022-12-02T03:18:10.448Z,22.00
2022-12-02T03:20:37.244Z,21.53
2022-12-02T03:23:04.362Z,22.07
2022-12-02T03:25:31.609Z,22.20
2022-12-02T03:27:58.793Z,22.70
2022-12-02T03:30:25.666Z,23.07
2022-12-02T03:32:52.774Z,23.20
2022-12-02T03:35:19.687Z,21.63
2022-12-02T03:37:46.510Z,21.63
2022-12-02T03:40:13.571Z,21.17
2022-12-02T03:42:40.615Z,20.90
2022-12-02T03:45:08.114Z,22.63
2022-12-02T03:47:35.284Z,21.57
2022-12-02T03:50:03.028Z,22.37
2022-12-02T03:52:30.032Z,22.60
2022-12-02T03:54:57.518Z,21.00
2022-12-02T03:57:24.929Z,22.93
2022-12-02T03:59:51.688Z,20.90
2022-12-02T04:02:19.555Z,21.87
2022-12-02T04:04:46.285Z,21.87
2022-12-02T04:07:13.073Z,22.00
2022-12-02T04:09:39.877Z,22.57
2022-12-02T04:12:06.587Z,22.80
2022-12-02T04:14:33.337Z,21.87
2022-12-02T04:17:05.156Z,21.80
2022-12-02T04:19:34.766Z,20.97
2022-12-02T04:22:02.276Z,23.23
2022-12-02T04:24:29.053Z,22.33
2022-12-02T04:26:56.104Z,22.10
2022-12-02T04:29:22.962Z,20.63
2022-12-02T04:31:49.730Z,21.60
2022-12-02T04:34:16.602Z,23.07
2022-12-02T04:36:43.475Z,22.37
2022-12-02T04:39:10.294Z,20.43
2022-12-02T04:41:36.982Z,21.13
2022-12-02T04:44:03.982Z,21.10
2022-12-02T04:46:30.745Z,19.50
2022-12-02T04:48:57.564Z,22.10
2022-12-02T04:51:24.298Z,20.07
2022-12-02T04:53:51.010Z,21.67
2022-12-02T04:56:17.736Z,20.63
2022-12-02T04:58:44.490Z,19.33
2022-12-02T05:01:11.242Z,22.07
2022-12-02T05:03:38.029Z,20.50
2022-12-02T05:06:04.942Z,22.00
2022-12-02T05:08:31.618Z,20.47
2022-12-02T05:10:58.319Z,19.33
2022-12-02T05:13:25.062Z,21.83
2022-12-02T05:15:51.832Z,22.57
2022-12-02T05:18:18.605Z,20.13
2022-12-02T05:20:45.332Z,22.43
2022-12-02T05:23:13.747Z,20.40
2022-12-02T05:25:40.624Z,22.33
2022-12-02T05:28:07.462Z,19.97
2022-12-02T05:30:34.187Z,20.40
2022-12-02T05:33:01.061Z,19.07
2022-12-02T05:35:27.895Z,18.60
2022-12-02T05:37:54.754Z,18.87
2022-12-02T05:40:21.527Z,19.53
2022-12-02T05:42:48.347Z,18.60
2022-12-02T05:45:23.009Z,18.83
2022-12-02T05:47:53.826Z,18.60
2022-12-02T05:50:21.454Z,17.87
2022-12-02T05:52:55.228Z,17.80
2022-12-02T05:55:22.639Z,17.90
2022-12-02T05:57:50.086Z,17.47
2022-12-02T06:00:18.419Z,17.70
2022-12-02T06:02:54.052Z,17.20
2022-12-02T06:05:37.924Z,16.43
2022-12-02T06:08:37.782Z,18.33
2022-12-02T06:11:28.743Z,16.83
2022-12-02T06:13:58.201Z,17.33
2022-12-02T06:16:28.076Z,16.97
2022-12-02T06:18:55.627Z,17.87
2022-12-02T06:21:23.553Z,16.97
2022-12-02T06:23:52.455Z,15.50
2022-12-02T06:26:20.719Z,15.83
2022-12-02T06:28:52.987Z,15.53
2022-12-02T06:31:39.040Z,16.87
2022-12-02T06:34:41.174Z,15.70
2022-12-02T06:37:20.534Z,14.63
2022-12-02T06:40:20.046Z,16.07
2022-12-02T06:42:38.776Z,16.87
2022-12-02T06:45:27.391Z,14.70
2022-12-02T06:47:58.851Z,15.80
2022-12-02T06:50:30.536Z,14.40
2022-12-02T06:53:10.157Z,15.13
2022-12-02T06:55:38.453Z,15.43
2022-12-02T06:58:23.112Z,15.57
2022-12-02T07:00:50.032Z,14.03
2022-12-02T07:03:30.881Z,15.03
2022-12-02T07:06:19.448Z,15.47
2022-12-02T07:08:47.040Z,15.37
2022-12-02T07:11:43.460Z,14.73
2022-12-02T07:14:35.563Z,15.27
2022-12-02T07:17:04.186Z,14.47
2022-12-02T07:19:40.400Z,15.83
2022-12-02T07:22:22.206Z,15.77
2022-12-02T07:25:02.128Z,13.83
2022-12-02T07:27:36.008Z,14.60
2022-12-02T07:30:03.810Z,14.03
2022-12-02T07:32:30.590Z,14.60
2022-12-02T07:34:57.583Z,14.13
2022-12-02T07:37:24.438Z,13.80
2022-12-02T07:39:51.325Z,14.20
2022-12-02T07:42:18.553Z,15.13
2022-12-02T07:44:45.302Z,14.27
2022-12-02T07:47:12.112Z,13.60
2022-12-02T07:49:38.921Z,14.53
2022-12-02T07:52:05.743Z,14.77
2022-12-02T07:54:33.530Z,14.77
2022-12-02T07:57:00.300Z,14.27
2022-12-02T07:59:26.981Z,14.47
2022-12-02T08:01:53.742Z,15.30
2022-12-02T08:04:20.638Z,15.27
2022-12-02T08:06:47.531Z,15.97
2022-12-02T08:09:14.291Z,14.73
2022-12-02T08:11:41.005Z,15.70
2022-12-02T08:14:07.697Z,13.83
2022-12-02T08:16:35.393Z,15.80
2022-12-02T08:19:02.277Z,15.67
2022-12-02T08:21:30.575Z,13.50
2022-12-02T08:23:57.383Z,14.90
2022-12-02T08:26:24.413Z,14.80
2022-12-02T08:28:54.209Z,14.97
2022-12-02T08:31:21.857Z,15.93
2022-12-02T08:33:49.764Z,15.03
2022-12-02T08:36:16.532Z,15.00
2022-12-02T08:38:43.686Z,14.93
2022-12-02T08:41:13.970Z,15.37
2022-12-02T08:43:41.547Z,14.47
2022-12-02T08:46:09.101Z,15.77
2022-12-02T08:48:36.061Z,15.10
2022-12-02T08:51:02.998Z,15.37
2022-12-02T08:53:29.811Z,14.40
2022-12-02T08:55:56.642Z,13.97
2022-12-02T08:58:24.120Z,14.90
2022-12-02T09:00:51.050Z,15.17
2022-12-02T09:03:17.810Z,15.23
2022-12-02T09:05:44.689Z,14.80
2022-12-02T09:08:11.515Z,15.87
2022-12-02T09:10:38.423Z,14.40
2022-12-02T09:13:05.158Z,14.43
2022-12-02T09:15:31.965Z,14.50
2022-12-02T09:17:58.708Z,14.67
2022-12-02T09:20:25.546Z,14.57
2022-12-02T09:22:52.419Z,14.73
2022-12-02T09:25:19.349Z,14.47
2022-12-02T09:27:46.051Z,13.90
2022-12-02T09:30:14.132Z,13.20
2022-12-02T09:32:41.242Z,14.13
2022-12-02T09:35:08.326Z,14.40
2022-12-02T09:37:35.361Z,13.27
2022-12-02T09:40:02.392Z,13.93
2022-12-02T09:42:29.224Z,14.73
2022-12-02T09:44:56.930Z,13.60
2022-12-02T09:47:24.605Z,13.23
2022-12-02T09:49:51.407Z,13.50
2022-12-02T09:52:25.885Z,14.53
2022-12-02T09:54:55.593Z,14.03
2022-12-02T09:57:26.978Z,13.57
2022-12-02T09:59:54.081Z,14.83
2022-12-02T10:02:39.729Z,13.60
2022-12-02T10:05:25.414Z,14.60
2022-12-02T10:07:55.377Z,12.57
2022-12-02T10:10:28.347Z,14.93
2022-12-02T10:12:55.664Z,13.07
2022-12-02T10:15:29.139Z,14.77
2022-12-02T10:17:56.587Z,13.97
2022-12-02T10:20:25.657Z,14.43
2022-12-02T10:23:21.571Z,15.00
2022-12-02T10:25:55.450Z,14.60
2022-12-02T10:28:22.188Z,15.17
2022-12-02T10:30:51.247Z,16.30
2022-12-02T10:33:18.025Z,14.77
2022-12-02T10:35:49.210Z,13.67
2022-12-02T10:38:32.668Z,15.00
2022-12-02T10:41:15.283Z,14.53
2022-12-02T10:43:44.685Z,14.97
2022-12-02T10:46:14.845Z,14.57
2022-12-02T10:48:42.266Z,15.57
2022-12-02T10:51:17.403Z,14.70
2022-12-02T10:53:46.288Z,14.63
2022-12-02T10:56:20.244Z,15.20
2022-12-02T10:58:50.893Z,14.70
2022-12-02T11:01:21.037Z,16.03
2022-12-02T11:03:48.886Z,14.87
2022-12-02T11:06:22.265Z,14.63
2022-12-02T11:08:49.632Z,14.43
2022-12-02T11:11:25.499Z,15.57
2022-12-02T11:13:53.861Z,16.10
2022-12-02T11:16:29.941Z,15.80
2022-12-02T11:19:35.300Z,15.03
2022-12-02T11:22:02.838Z,16.20
2022-12-02T11:24:32.670Z,16.30
2022-12-02T11:27:02.645Z,15.03
2022-12-02T11:29:39.854Z,16.97
2022-12-02T11:32:21.853Z,16.13
2022-12-02T11:37:45.240Z,16.97
2022-12-02T11:40:11.923Z,17.03
2022-12-02T11:42:40.781Z,16.83
2022-12-02T11:45:17.973Z,17.03
2022-12-02T11:47:56.978Z,15.40
2022-12-02T11:50:26.121Z,15.97
2022-12-02T11:53:00.977Z,17.30
2022-12-02T11:55:49.591Z,17.00
2022-12-02T11:58:25.196Z,16.70
2022-12-02T12:01:04.914Z,18.10
2022-12-02T12:03:32.290Z,17.97
2022-12-02T12:06:13.815Z,17.80
2022-12-02T12:08:44.772Z,17.93
2022-12-02T12:11:26.461Z,19.40
2022-12-02T12:13:57.585Z,16.67
2022-12-02T12:16:24.783Z,17.37
2022-12-02T12:18:51.834Z,16.17
2022-12-02T12:21:30.709Z,16.67
2022-12-02T12:24:16.267Z,15.40
2022-12-02T12:27:01.905Z,15.63
2022-12-02T12:29:33.131Z,15.67
2022-12-02T12:32:00.082Z,15.30
2022-12-02T12:34:27.230Z,15.33
2022-12-02T12:36:53.950Z,14.13
2022-12-02T12:39:20.702Z,14.57
2022-12-02T12:42:02.838Z,15.70
2022-12-02T12:44:32.197Z,13.73
2022-12-02T12:47:04.790Z,14.33
2022-12-02T12:49:33.228Z,13.83
2022-12-02T12:52:01.063Z,15.13
2022-12-02T12:54:27.968Z,14.57
2022-12-02T12:56:54.675Z,14.07
2022-12-02T12:59:21.559Z,13.20
2022-12-02T13:01:48.544Z,13.60
2022-12-02T13:04:15.393Z,14.77
2022-12-02T13:06:43.290Z,13.83
2022-12-02T13:09:11.605Z,13.43
2022-12-02T13:11:38.863Z,15.43
2022-12-02T13:14:07.837Z,14.30
2022-12-02T13:16:34.730Z,14.17
2022-12-02T13:19:01.521Z,12.93
2022-12-02T13:21:28.332Z,12.93
2022-12-02T13:23:55.452Z,13.40
2022-12-02T13:26:22.288Z,12.60
2022-12-02T13:28:53.243Z,13.47
2022-12-02T13:31:21.042Z,11.90
2022-12-02T13:33:48.184Z,12.30
2022-12-02T13:36:15.117Z,11.07
2022-12-02T13:38:41.896Z,10.60
2022-12-02T13:41:08.724Z,10.90
2022-12-02T13:43:35.528Z,11.60
2022-12-02T13:46:02.413Z,10.60
2022-12-02T13:48:29.218Z,10.83
2022-12-02T13:50:56.154Z,11.13
2022-12-02T13:53:23.025Z,10.70
2022-12-02T13:55:50.008Z,10.93
2022-12-02T13:58:17.727Z,10.23
2022-12-02T14:00:44.532Z,10.00
2022-12-02T14:03:11.569Z,9.87
2022-12-02T14:05:38.374Z,8.50
2022-12-02T14:08:05.372Z,8.40
2022-12-02T14:10:32.204Z,8.50
2022-12-02T14:12:59.103Z,9.13
2022-12-02T14:15:26.165Z,7.80
2022-12-02T14:17:53.226Z,7.77
2022-12-02T14:20:19.970Z,7.63
2022-12-02T14:22:47.056Z,8.27
2022-12-02T14:25:13.810Z,7.40
2022-12-02T14:27:40.676Z,7.97
2022-12-02T14:30:08.749Z,7.90
2022-12-02T14:32:37.868Z,8.20
2022-12-02T14:35:10.112Z,8.13
2022-12-02T14:37:36.841Z,7.77
2022-12-02T14:40:04.710Z,7.57
2022-12-02T14:42:31.548Z,9.10
2022-12-02T14:44:58.391Z,9.37
2022-12-02T14:47:25.323Z,8.80
2022-12-02T14:49:52.138Z,10.83
2022-12-02T14:52:18.903Z,11.23
2022-12-02T14:54:45.610Z,10.90
2022-12-02T14:57:14.525Z,11.07
2022-12-02T14:59:44.742Z,10.40
2022-12-02T15:02:14.065Z,10.80
2022-12-02T15:04:41.410Z,10.73
2022-12-02T15:07:08.237Z,11.73
2022-12-02T15:09:35.018Z,13.13
2022-12-02T15:12:01.790Z,13.43
2022-12-02T15:14:28.530Z,13.13
2022-12-02T15:16:55.353Z,14.37
2022-12-02T15:19:22.155Z,15.47
2022-12-02T15:21:48.885Z,15.93
2022-12-02T15:24:15.611Z,15.23
2022-12-02T15:26:42.323Z,17.67
2022-12-02T15:29:09.430Z,16.33
2022-12-02T15:31:36.334Z,16.40
2022-12-02T15:34:03.122Z,16.10
2022-12-02T15:36:29.812Z,16.67
2022-12-02T15:38:56.631Z,17.60
2022-12-02T15:41:23.327Z,18.30
2022-12-02T15:43:53.423Z,16.97
2022-12-02T15:46:22.345Z,19.75
2022-12-02T15:48:49.503Z,21.33
2022-12-02T15:51:16.256Z,21.77
2022-12-02T15:53:45.773Z,24.27
2022-12-02T15:56:13.498Z,21.83
2022-12-02T15:58:40.283Z,27.58
2022-12-02T16:01:07.447Z,23.57
2022-12-02T16:03:34.304Z,23.00
2022-12-02T16:06:01.003Z,21.37
2022-12-02T16:08:27.720Z,23.60
2022-12-02T16:10:54.474Z,23.03
2022-12-02T16:13:21.219Z,23.13
2022-12-02T16:15:47.949Z,24.83
2022-12-02T16:18:14.656Z,23.37
2022-12-02T16:20:41.422Z,23.53
2022-12-02T16:23:08.851Z,22.07
2022-12-02T16:25:36.334Z,22.43
2022-12-02T16:28:03.125Z,23.23
2022-12-02T16:30:29.880Z,23.07
2022-12-02T16:32:56.604Z,22.13
2022-12-02T16:35:23.316Z,24.17
2022-12-02T16:37:50.009Z,23.97
2022-12-02T16:40:16.749Z,21.17
2022-12-02T16:42:43.480Z,23.03
2022-12-02T16:45:10.629Z,23.07
2022-12-02T16:47:37.367Z,23.60
2022-12-02T16:50:04.361Z,22.47
2022-12-02T16:52:31.160Z,22.33
2022-12-02T16:54:57.914Z,23.67
2022-12-02T16:57:24.635Z,23.00
2022-12-02T16:59:51.333Z,22.13
2022-12-02T17:02:18.193Z,21.93
2022-12-02T17:04:46.042Z,22.30
2022-12-02T17:07:12.788Z,21.33
2022-12-02T17:09:39.570Z,20.43
2022-12-02T17:12:06.523Z,19.77
2022-12-02T17:14:33.226Z,20.17
2022-12-02T17:17:00.531Z,20.17
2022-12-02T17:19:32.909Z,19.20
2022-12-02T17:22:00.045Z,20.53
2022-12-02T17:24:26.887Z,19.83
2022-12-02T17:26:55.893Z,18.50
2022-12-02T17:29:22.771Z,18.73
2022-12-02T17:31:49.605Z,19.90
2022-12-02T17:34:16.404Z,17.43
2022-12-02T17:36:43.167Z,18.83
2022-12-02T17:39:11.586Z,17.30
2022-12-02T17:41:38.380Z,18.63
2022-12-02T17:44:05.129Z,16.80
2022-12-02T17:46:32.061Z,17.87
2022-12-02T17:48:58.871Z,17.23
2022-12-02T17:51:25.646Z,22.53
2022-12-02T17:53:52.413Z,21.20
2022-12-02T17:56:19.225Z,18.80
2022-12-02T17:58:45.960Z,19.40
2022-12-02T18:01:12.890Z,19.30
2022-12-02T18:03:40.533Z,17.97
2022-12-02T18:06:08.533Z,17.90
2022-12-02T18:08:35.764Z,18.90
2022-12-02T18:11:03.064Z,20.40
2022-12-02T18:13:30.250Z,18.90
2022-12-02T18:15:57.384Z,19.13
2022-12-02T18:18:24.136Z,25.50
2022-12-02T18:20:50.860Z,17.60
2022-12-02T18:23:18.164Z,18.23
2022-12-02T18:25:45.459Z,18.97
2022-12-02T18:28:12.586Z,17.63
2022-12-02T18:30:39.313Z,18.10
2022-12-02T18:33:06.891Z,17.77
2022-12-02T18:35:33.624Z,18.47
2022-12-02T18:38:00.427Z,18.00
2022-12-02T18:40:27.170Z,17.97
2022-12-02T18:42:53.904Z,18.37
2022-12-02T18:45:20.751Z,17.73
2022-12-02T18:47:47.453Z,17.83
2022-12-02T18:50:14.730Z,17.33
2022-12-02T18:52:41.952Z,16.40
2022-12-02T18:55:10.660Z,18.73
2022-12-02T18:57:37.457Z,18.20
2022-12-02T19:00:06.634Z,16.93
2022-12-02T19:02:33.475Z,16.10
2022-12-02T19:05:00.236Z,17.00
2022-12-02T19:07:27.122Z,18.43
2022-12-02T19:09:54.288Z,18.33
2022-12-02T19:12:21.442Z,18.50
2022-12-02T19:14:48.413Z,17.30
2022-12-02T19:17:16.086Z,17.63
2022-12-02T19:19:43.181Z,18.20
2022-12-02T19:22:10.599Z,18.23
2022-12-02T19:24:37.625Z,18.43
2022-12-02T19:27:04.902Z,18.53
2022-12-02T19:29:32.652Z,19.20
2022-12-02T19:31:59.444Z,18.73
2022-12-02T19:34:26.199Z,18.83
2022-12-02T19:36:53.241Z,17.70
2022-12-02T19:39:20.245Z,17.43
2022-12-02T19:41:46.963Z,16.80
2022-12-02T19:44:13.891Z,16.00
2022-12-02T19:46:40.896Z,16.97
2022-12-02T19:49:07.752Z,16.30
2022-12-02T19:51:34.651Z,17.03
2022-12-02T19:54:01.528Z,15.53
2022-12-02T19:56:28.464Z,15.70
2022-12-02T19:58:55.442Z,16.03
2022-12-02T20:01:23.466Z,14.63
2022-12-02T20:03:50.190Z,14.67
2022-12-02T20:06:17.003Z,13.10
2022-12-02T20:08:43.821Z,12.50
2022-12-02T20:11:10.601Z,12.93
2022-12-02T20:13:37.477Z,12.67
2022-12-02T20:16:04.326Z,10.63
2022-12-02T20:18:31.127Z,10.23
2022-12-02T20:20:57.886Z,10.13
2022-12-02T20:23:24.723Z,9.37
2022-12-02T20:25:51.532Z,11.47
2022-12-02T20:28:18.259Z,10.00
2022-12-02T20:30:45.064Z,9.77
2022-12-02T20:33:11.782Z,10.07
2022-12-02T20:35:38.579Z,10.13
2022-12-02T20:38:05.463Z,10.70
2022-12-02T20:40:32.581Z,9.73
2022-12-02T20:42:59.344Z,11.50
2022-12-02T20:45:26.068Z,11.00
2022-12-02T20:47:52.806Z,10.80
2022-12-02T20:50:19.498Z,12.90
2022-12-02T20:52:53.136Z,11.23
2022-12-02T20:55:21.389Z,11.60
2022-12-02T20:57:50.951Z,10.80
2022-12-02T21:00:19.247Z,12.23
2022-12-02T21:02:45.996Z,11.53
2022-12-02T21:05:12.850Z,12.33
2022-12-02T21:07:39.638Z,12.17
2022-12-02T21:10:07.709Z,12.13
2022-12-02T21:12:34.606Z,12.10
2022-12-02T21:15:02.264Z,13.03
2022-12-02T21:17:31.197Z,11.80
2022-12-02T21:19:58.280Z,11.80
2022-12-02T21:22:25.094Z,11.40
2022-12-02T21:24:53.354Z,12.03
2022-12-02T21:27:20.317Z,12.67
2022-12-02T21:29:47.127Z,10.33
2022-12-02T21:32:13.893Z,11.83
2022-12-02T21:34:40.602Z,10.93
2022-12-02T21:37:07.339Z,10.90
2022-12-02T21:39:34.057Z,11.70
2022-12-02T21:42:00.885Z,10.83
2022-12-02T21:44:27.712Z,10.83
2022-12-02T21:46:54.519Z,10.60
2022-12-02T21:49:21.279Z,9.93
2022-12-02T21:51:49.532Z,11.93
2022-12-02T21:54:16.364Z,11.23
2022-12-02T21:56:43.207Z,10.93
2022-12-02T21:59:10.019Z,10.80
2022-12-02T22:01:40.790Z,10.50
2022-12-02T22:04:11.612Z,9.63
2022-12-02T22:06:38.428Z,10.27
2022-12-02T22:09:06.402Z,10.50
2022-12-02T22:11:33.882Z,10.27
2022-12-02T22:14:00.978Z,10.63
2022-12-02T22:16:28.137Z,10.77
2022-12-02T22:18:54.973Z,9.40
2022-12-02T22:21:23.266Z,10.63
2022-12-02T22:23:50.246Z,10.77
2022-12-02T22:26:20.418Z,11.13
2022-12-02T22:28:47.369Z,9.93
2022-12-02T22:31:14.267Z,10.23
2022-12-02T22:33:41.086Z,9.80
2022-12-02T22:36:08.052Z,10.07
2022-12-02T22:38:34.779Z,9.90
2022-12-02T22:41:01.472Z,11.17
2022-12-02T22:43:28.204Z,10.23
2022-12-02T22:45:54.950Z,9.90
2022-12-02T22:48:21.689Z,10.03
2022-12-02T22:50:48.404Z,10.30
2022-12-02T22:53:15.219Z,12.47
2022-12-02T22:55:42.046Z,10.70
2022-12-02T22:58:08.799Z,10.17
2022-12-02T23:00:35.563Z,10.40
2022-12-02T23:03:02.404Z,10.47
2022-12-02T23:05:29.271Z,9.93
2022-12-02T23:07:56.214Z,11.70
2022-12-02T23:10:22.966Z,12.43
2022-12-02T23:12:50.272Z,11.43
2022-12-02T23:18:04.059Z,10.40
2022-12-02T23:20:30.833Z,10.77
2022-12-02T23:22:57.544Z,12.07
2022-12-02T23:25:24.309Z,11.57
2022-12-02T23:27:51.063Z,10.90
2022-12-02T23:30:21.403Z,11.30
2022-12-02T23:32:52.529Z,10.33
2022-12-02T23:35:19.256Z,11.50
2022-12-02T23:37:46.069Z,10.87
2022-12-02T23:40:13.259Z,11.07
2022-12-02T23:42:40.159Z,10.90
2022-12-02T23:45:07.631Z,11.23
2022-12-02T23:47:34.851Z,12.63
2022-12-02T23:50:02.015Z,11.93
2022-12-02T23:52:28.740Z,11.73
2022-12-02T23:54:55.603Z,11.77
2022-12-02T23:57:22.584Z,12.40
2022-12-02T23:59:49.369Z,12.50
